Galax, VA (24333)

12:10 AM EST on January 26, 2015 (GMT -0500)
Taylorwoods Station | Change Station
CLOSE
Current Station
Personal Weather Station
Location: Galax, VA
Elevation: 2585 ft
Nearby Weather Stations

Elev 2585 ft 36.68 °N, 80.89 °W | Updated 10 seconds ago

Overcast
Overcast
41.3 °F
Feels Like 38 °F
N
5.0
Wind Variable Wind from South
Gusts 7.0 mph

Today
High -- | Low -- °F
--% Chance of Precip.
Yesterday
High -- | Low -- °F
Precip. -- in
7:30 AM 5:42 PM
Waxing Crescent, 39% visible
Pressure 29.68 in
Visibility 10.0 miles
Clouds Mostly Cloudy 8000 ft
Overcast 11000 ft
Windchill 38 °F
Dew Point 32 °F
Humidity 69%
Rainfall 0.00 in
Snow Depth Not available.
UV 0.0 out of 12
Pollen 1.60 out of 12
Air Quality Not available.
Flu Activity Not available.
METAR KHLX 260455Z AUTO 19011G18KT 10SM BKN080 OVC110 05/M01 A2968 RMK AO2 T00501011 400921015

More Conditions Fewer Conditions

Pressure 29.68 in
Visibility 10.0 miles
Clouds Mostly Cloudy 8000 ft
Overcast 11000 ft
Windchill 38 °F
Dew Point 32 °F
Humidity 69%
Rainfall 0.00 in
Snow Depth Not available.
UV 0.0 out of 12
Pollen 1.60 out of 12
Air Quality Not available.
Flu Activity Not available.
METAR KHLX 260455Z AUTO 19011G18KT 10SM BKN080 OVC110 05/M01 A2968 RMK AO2 T00501011 400921015

More Conditions Fewer Conditions

10-Day Weather Forecast

Almanac

Astronomy

Jan. 26, 2015 Rise Set
Actual Time
Civil Twilight
Nautical Twilight
Astronomical Twilight
Moon
Length of Visible Light
Length of Day
Tomorrow will be .
, % of the Moon is Illuminated

Today's Extremes

State Highs State Lows

Community

WunderPhotos

Upload Photos

1,790,151 photos uploaded!

WunderBlogs® & News

Nearby

Air Quality

  Air Quality AQ Index Pollutant
Not available.

Snow Depth

Station Depth Elevation

Earthquake Activity

City Distance Mag. Time & Date
Minimum magnitude displayed is 2.5.

Coastal Water Temperatures

Place Temperature

Nearby Weather Stations